sensor_id;sensor_type;location;lat;lon;timestamp;pressure;altitude;pressure_sealevel;temperature;humidity
22653;BME280;11493;43.344;26.226;2023-01-29T00:02:08;99543.66;;;2.01;100.00
22653;BME280;11493;43.344;26.226;2023-01-29T00:04:35;99530.03;;;1.95;100.00
22653;BME280;11493;43.344;26.226;2023-01-29T00:07:02;99533.69;;;1.84;100.00
22653;BME280;11493;43.344;26.226;2023-01-29T00:09:29;99535.97;;;1.71;100.00
22653;BME280;11493;43.344;26.226;2023-01-29T00:11:57;99549.97;;;1.62;100.00
22653;BME280;11493;43.344;26.226;2023-01-29T00:14:24;99551.78;;;1.57;100.00
22653;BME280;11493;43.344;26.226;2023-01-29T00:16:54;99550.16;;;1.56;100.00
22653;BME280;11493;43.344;26.226;2023-01-29T00:19:21;99553.31;;;1.48;100.00
22653;BME280;11493;43.344;26.226;2023-01-29T00:21:48;99534.63;;;1.29;100.00
22653;BME280;11493;43.344;26.226;2023-01-29T00:24:15;99556.44;;;1.40;100.00
22653;BME280;11493;43.344;26.226;2023-01-29T00:26:42;99547.75;;;1.38;100.00
22653;BME280;11493;43.344;26.226;2023-01-29T00:29:10;99559.59;;;1.53;100.00
22653;BME280;11493;43.344;26.226;2023-01-29T00:31:37;99543.47;;;1.42;100.00
22653;BME280;11493;43.344;26.226;2023-01-29T00:34:05;99552.28;;;1.54;100.00
22653;BME280;11493;43.344;26.226;2023-01-29T00:36:32;99545.53;;;1.35;100.00
22653;BME280;11493;43.344;26.226;2023-01-29T00:39:00;99552.53;;;1.30;100.00
22653;BME280;11493;43.344;26.226;2023-01-29T00:41:30;99556.31;;;1.29;100.00
22653;BME280;11493;43.344;26.226;2023-01-29T00:44:17;99565.25;;;1.30;100.00
22653;BME280;11493;43.344;26.226;2023-01-29T00:47:03;99553.19;;;1.21;100.00
22653;BME280;11493;43.344;26.226;2023-01-29T00:49:30;99558.63;;;1.21;100.00
22653;BME280;11493;43.344;26.226;2023-01-29T00:51:57;99554.19;;;1.15;100.00
22653;BME280;11493;43.344;26.226;2023-01-29T00:54:47;99547.78;;;1.21;100.00
22653;BME280;11493;43.344;26.226;2023-01-29T00:57:14;99561.72;;;1.29;100.00
22653;BME280;11493;43.344;26.226;2023-01-29T00:59:41;99561.72;;;1.29;100.00
22653;BME280;11493;43.344;26.226;2023-01-29T01:02:08;99553.03;;;1.27;100.00
22653;BME280;11493;43.344;26.226;2023-01-29T01:04:56;99555.41;;;1.24;100.00
22653;BME280;11493;43.344;26.226;2023-01-29T01:07:23;99562.53;;;1.30;100.00
22653;BME280;11493;43.344;26.226;2023-01-29T01:09:50;99556.13;;;1.36;100.00
22653;BME280;11493;43.344;26.226;2023-01-29T01:12:35;99555.31;;;1.36;100.00
22653;BME280;11493;43.344;26.226;2023-01-29T01:15:02;99566.66;;;1.33;100.00
22653;BME280;11493;43.344;26.226;2023-01-29T01:17:30;99564.94;;;1.26;100.00
22653;BME280;11493;43.344;26.226;2023-01-29T01:19:57;99558.63;;;1.21;100.00
22653;BME280;11493;43.344;26.226;2023-01-29T01:22:23;99567.31;;;1.23;100.00
22653;BME280;11493;43.344;26.226;2023-01-29T01:24:51;99576.03;;;1.25;100.00
22653;BME280;11493;43.344;26.226;2023-01-29T01:27:17;99574.47;;;1.29;100.00
22653;BME280;11493;43.344;26.226;2023-01-29T01:29:45;99574.47;;;1.29;100.00
22653;BME280;11493;43.344;26.226;2023-01-29T01:32:12;99572.16;;;1.38;100.00
22653;BME280;11493;43.344;26.226;2023-01-29T01:34:40;99585.69;;;1.38;100.00
22653;BME280;11493;43.344;26.226;2023-01-29T01:37:07;99557.53;;;1.22;100.00
22653;BME280;11493;43.344;26.226;2023-01-29T01:39:34;99577.00;;;1.36;100.00
22653;BME280;11493;43.344;26.226;2023-01-29T01:42:01;99570.25;;;1.38;100.00
22653;BME280;11493;43.344;26.226;2023-01-29T01:44:59;99578.97;;;1.40;100.00
22653;BME280;11493;43.344;26.226;2023-01-29T01:47:43;99581.03;;;1.33;100.00
22653;BME280;11493;43.344;26.226;2023-01-29T01:50:24;99577.25;;;1.34;100.00
22653;BME280;11493;43.344;26.226;2023-01-29T01:52:54;99587.34;;;1.39;100.00
22653;BME280;11493;43.344;26.226;2023-01-29T01:55:27;99573.97;;;1.32;100.00
22653;BME280;11493;43.344;26.226;2023-01-29T01:58:02;99567.78;;;1.37;100.00
22653;BME280;11493;43.344;26.226;2023-01-29T02:00:29;99582.75;;;1.39;100.00
22653;BME280;11493;43.344;26.226;2023-01-29T02:02:56;99576.63;;;1.49;100.00
22653;BME280;11493;43.344;26.226;2023-01-29T02:05:42;99565.91;;;1.37;100.00
22653;BME280;11493;43.344;26.226;2023-01-29T02:08:54;99579.03;;;1.45;100.00
22653;BME280;11493;43.344;26.226;2023-01-29T02:11:41;99574.13;;;1.42;100.00
22653;BME280;11493;43.344;26.226;2023-01-29T02:14:09;99577.25;;;1.34;100.00
22653;BME280;11493;43.344;26.226;2023-01-29T02:16:37;99573.22;;;1.37;100.00
22653;BME280;11493;43.344;26.226;2023-01-29T02:19:11;99554.97;;;1.32;100.00
22653;BME280;11493;43.344;26.226;2023-01-29T02:27:18;99571.66;;;1.41;100.00
22653;BME280;11493;43.344;26.226;2023-01-29T02:32:40;99583.06;;;1.43;100.00
22653;BME280;11493;43.344;26.226;2023-01-29T02:41:01;99585.28;;;1.46;100.00
22653;BME280;11493;43.344;26.226;2023-01-29T02:43:46;99577.31;;;1.39;100.00
22653;BME280;11493;43.344;26.226;2023-01-29T02:46:29;99576.50;;;1.39;100.00
22653;BME280;11493;43.344;26.226;2023-01-29T02:49:03;99582.75;;;1.39;100.00
22653;BME280;11493;43.344;26.226;2023-01-29T02:51:54;99564.00;;;1.38;100.00
22653;BME280;11493;43.344;26.226;2023-01-29T02:54:49;99585.22;;;1.41;100.00
22653;BME280;11493;43.344;26.226;2023-01-29T02:57:22;99574.34;;;1.41;100.00
22653;BME280;11493;43.344;26.226;2023-01-29T02:59:57;99579.72;;;1.36;100.00
22653;BME280;11493;43.344;26.226;2023-01-29T03:02:31;99584.06;;;1.37;100.00
22653;BME280;11493;43.344;26.226;2023-01-29T03:05:04;99584.88;;;1.37;100.00
22653;BME280;11493;43.344;26.226;2023-01-29T03:07:39;99577.81;;;1.36;100.00
22653;BME280;11493;43.344;26.226;2023-01-29T03:10:22;99579.63;;;1.30;100.00
22653;BME280;11493;43.344;26.226;2023-01-29T03:12:57;99598.25;;;1.44;100.00
22653;BME280;11493;43.344;26.226;2023-01-29T03:15:33;99584.97;;;1.42;100.00
22653;BME280;11493;43.344;26.226;2023-01-29T03:18:22;99586.78;;;1.37;100.00
22653;BME280;11493;43.344;26.226;2023-01-29T03:21:02;99583.16;;;1.31;100.00
22653;BME280;11493;43.344;26.226;2023-01-29T03:23:52;99575.28;;;1.29;100.00
22653;BME280;11493;43.344;26.226;2023-01-29T03:26:41;99584.56;;;1.34;100.00
22653;BME280;11493;43.344;26.226;2023-01-29T03:29:33;99586.53;;;1.38;100.00
22653;BME280;11493;43.344;26.226;2023-01-29T03:32:24;99583.16;;;1.31;100.00
22653;BME280;11493;43.344;26.226;2023-01-29T03:34:57;99580.78;;;1.35;100.00
22653;BME280;11493;43.344;26.226;2023-01-29T03:37:37;99587.69;;;1.25;100.00
22653;BME280;11493;43.344;26.226;2023-01-29T03:40:06;99585.47;;;1.22;100.00
22653;BME280;11493;43.344;26.226;2023-01-29T03:42:54;99587.28;;;1.17;100.00
22653;BME280;11493;43.344;26.226;2023-01-29T03:45:37;99584.00;;;1.15;100.00
22653;BME280;11493;43.344;26.226;2023-01-29T03:59:58;99583.66;;;1.11;100.00
22653;BME280;11493;43.344;26.226;2023-01-29T04:06:03;99578.56;;;1.15;100.00
22653;BME280;11493;43.344;26.226;2023-01-29T04:09:02;99582.34;;;1.14;100.00
22653;BME280;11493;43.344;26.226;2023-01-29T04:11:35;99590.47;;;1.14;100.00
22653;BME280;11493;43.344;26.226;2023-01-29T04:14:06;99595.91;;;1.14;100.00
22653;BME280;11493;43.344;26.226;2023-01-29T04:16:40;99591.13;;;1.21;100.00
22653;BME280;11493;43.344;26.226;2023-01-29T04:19:42;99601.72;;;1.22;100.00
22653;BME280;11493;43.344;26.226;2023-01-29T04:22:17;99607.22;;;1.27;100.00
22653;BME280;11493;43.344;26.226;2023-01-29T04:24:47;99599.91;;;1.28;100.00
22653;BME280;11493;43.344;26.226;2023-01-29T04:30:07;99587.19;;;1.28;100.00
22653;BME280;11493;43.344;26.226;2023-01-29T04:41:18;99620.13;;;1.37;100.00
22653;BME280;11493;43.344;26.226;2023-01-29T04:57:30;99632.94;;;1.42;100.00
22653;BME280;11493;43.344;26.226;2023-01-29T05:02:39;99626.38;;;1.38;100.00
22653;BME280;11493;43.344;26.226;2023-01-29T05:05:07;99641.06;;;1.42;100.00
22653;BME280;11493;43.344;26.226;2023-01-29T05:07:36;99635.56;;;1.37;100.00
22653;BME280;11493;43.344;26.226;2023-01-29T05:10:06;99643.22;;;1.40;100.00
22653;BME280;11493;43.344;26.226;2023-01-29T05:12:35;99638.03;;;1.38;100.00
22653;BME280;11493;43.344;26.226;2023-01-29T05:15:08;99630.88;;;1.32;100.00
22653;BME280;11493;43.344;26.226;2023-01-29T05:17:37;99643.72;;;1.37;100.00
22653;BME280;11493;43.344;26.226;2023-01-29T05:20:04;99637.72;;;1.35;100.00
22653;BME280;11493;43.344;26.226;2023-01-29T05:22:31;99619.06;;;1.21;100.00
22653;BME280;11493;43.344;26.226;2023-01-29T05:25:01;99637.13;;;1.33;100.00
22653;BME280;11493;43.344;26.226;2023-01-29T05:27:32;99643.03;;;1.29;100.00
22653;BME280;11493;43.344;26.226;2023-01-29T05:30:18;99651.34;;;1.23;100.00
22653;BME280;11493;43.344;26.226;2023-01-29T05:32:45;99647.16;;;1.15;100.00
22653;BME280;11493;43.344;26.226;2023-01-29T05:35:12;99649.59;;;1.00;100.00
22653;BME280;11493;43.344;26.226;2023-01-29T05:37:39;99651.06;;;1.08;100.00
22653;BME280;11493;43.344;26.226;2023-01-29T05:40:07;99642.94;;;1.08;100.00
22653;BME280;11493;43.344;26.226;2023-01-29T05:42:35;99646.56;;;1.13;100.00
22653;BME280;11493;43.344;26.226;2023-01-29T05:45:02;99662.91;;;1.18;100.00
22653;BME280;11493;43.344;26.226;2023-01-29T05:47:29;99653.06;;;1.12;100.00
22653;BME280;11493;43.344;26.226;2023-01-29T05:49:56;99668.81;;;1.15;100.00
22653;BME280;11493;43.344;26.226;2023-01-29T05:52:23;99666.84;;;1.11;100.00
22653;BME280;11493;43.344;26.226;2023-01-29T05:54:50;99658.88;;;1.04;100.00
22653;BME280;11493;43.344;26.226;2023-01-29T05:57:16;99675.72;;;1.06;100.00
22653;BME280;11493;43.344;26.226;2023-01-29T05:59:43;99670.19;;;1.01;100.00
22653;BME280;11493;43.344;26.226;2023-01-29T06:02:10;99663.13;;;1.00;100.00
22653;BME280;11493;43.344;26.226;2023-01-29T06:04:37;99671.84;;;1.02;100.00
22653;BME280;11493;43.344;26.226;2023-01-29T06:07:04;99672.34;;;0.99;100.00
22653;BME280;11493;43.344;26.226;2023-01-29T06:09:31;99677.50;;;1.01;100.00
22653;BME280;11493;43.344;26.226;2023-01-29T06:11:58;99682.63;;;1.14;100.00
22653;BME280;11493;43.344;26.226;2023-01-29T06:14:25;99665.53;;;1.13;100.00
22653;BME280;11493;43.344;26.226;2023-01-29T06:16:52;99690.44;;;1.27;100.00
22653;BME280;11493;43.344;26.226;2023-01-29T06:19:18;99694.63;;;1.35;100.00
22653;BME280;11493;43.344;26.226;2023-01-29T06:21:46;99701.06;;;1.45;100.00
22653;BME280;11493;43.344;26.226;2023-01-29T06:24:13;99689.19;;;1.51;100.00
22653;BME280;11493;43.344;26.226;2023-01-29T06:26:40;99707.28;;;1.62;100.00
22653;BME280;11493;43.344;26.226;2023-01-29T06:29:06;99702.09;;;1.61;100.00
22653;BME280;11493;43.344;26.226;2023-01-29T06:31:33;99703.81;;;1.67;100.00
22653;BME280;11493;43.344;26.226;2023-01-29T06:34:08;99711.47;;;1.70;100.00
22653;BME280;11493;43.344;26.226;2023-01-29T06:36:35;99714.81;;;1.77;100.00
22653;BME280;11493;43.344;26.226;2023-01-29T06:39:02;99706.84;;;1.87;100.00
22653;BME280;11493;43.344;26.226;2023-01-29T06:41:29;99709.06;;;1.90;100.00
22653;BME280;11493;43.344;26.226;2023-01-29T06:43:56;99704.47;;;1.91;100.00
22653;BME280;11493;43.344;26.226;2023-01-29T06:46:23;99692.72;;;1.85;100.00
22653;BME280;11493;43.344;26.226;2023-01-29T06:48:50;99714.81;;;1.94;100.00
22653;BME280;11493;43.344;26.226;2023-01-29T06:51:17;99709.56;;;1.87;100.00
22653;BME280;11493;43.344;26.226;2023-01-29T06:53:45;99718.59;;;1.93;100.00
22653;BME280;11493;43.344;26.226;2023-01-29T06:56:12;99713.50;;;1.96;100.00
22653;BME280;11493;43.344;26.226;2023-01-29T06:58:39;99720.41;;;2.04;100.00
22653;BME280;11493;43.344;26.226;2023-01-29T07:01:09;99713.97;;;2.10;100.00
22653;BME280;11493;43.344;26.226;2023-01-29T07:03:39;99722.69;;;2.12;100.00
22653;BME280;11493;43.344;26.226;2023-01-29T07:06:08;99722.44;;;2.14;100.00
22653;BME280;11493;43.344;26.226;2023-01-29T07:08:39;99738.78;;;2.19;100.00
22653;BME280;11493;43.344;26.226;2023-01-29T07:11:06;99742.09;;;2.21;100.00
22653;BME280;11493;43.344;26.226;2023-01-29T07:13:33;99737.75;;;2.25;100.00
22653;BME280;11493;43.344;26.226;2023-01-29T07:16:00;99747.13;;;2.34;100.00
22653;BME280;11493;43.344;26.226;2023-01-29T07:18:28;99745.38;;;2.45;100.00
22653;BME280;11493;43.344;26.226;2023-01-29T07:20:56;99735.75;;;2.37;100.00
22653;BME280;11493;43.344;26.226;2023-01-29T07:23:24;99731.97;;;2.38;100.00
22653;BME280;11493;43.344;26.226;2023-01-29T07:25:51;99740.69;;;2.40;100.00
22653;BME280;11493;43.344;26.226;2023-01-29T07:28:18;99744.47;;;2.39;100.00
22653;BME280;11493;43.344;26.226;2023-01-29T07:30:48;99754.34;;;2.45;100.00
22653;BME280;11493;43.344;26.226;2023-01-29T07:33:15;99763.84;;;2.64;100.00
22653;BME280;11493;43.344;26.226;2023-01-29T07:35:42;99768.44;;;2.64;100.00
22653;BME280;11493;43.344;26.226;2023-01-29T07:38:10;99770.91;;;2.66;100.00
22653;BME280;11493;43.344;26.226;2023-01-29T07:40:37;99762.94;;;2.59;100.00
22653;BME280;11493;43.344;26.226;2023-01-29T07:43:05;99779.50;;;2.57;100.00
22653;BME280;11493;43.344;26.226;2023-01-29T07:45:34;99763.38;;;2.51;100.00
22653;BME280;11493;43.344;26.226;2023-01-29T07:48:01;99769.31;;;2.48;100.00
22653;BME280;11493;43.344;26.226;2023-01-29T07:50:31;99773.91;;;2.47;100.00
22653;BME280;11493;43.344;26.226;2023-01-29T07:52:59;99769.63;;;2.51;100.00
22653;BME280;11493;43.344;26.226;2023-01-29T07:55:26;99773.75;;;2.54;100.00
22653;BME280;11493;43.344;26.226;2023-01-29T07:57:57;99762.88;;;2.54;100.00
22653;BME280;11493;43.344;26.226;2023-01-29T08:00:24;99757.63;;;2.47;100.00
22653;BME280;11493;43.344;26.226;2023-01-29T08:02:51;99779.63;;;2.68;100.00
22653;BME280;11493;43.344;26.226;2023-01-29T08:05:19;99781.53;;;2.67;100.00
22653;BME280;11493;43.344;26.226;2023-01-29T08:07:52;99786.22;;;2.72;100.00
22653;BME280;11493;43.344;26.226;2023-01-29T08:10:32;99789.06;;;2.82;100.00
22653;BME280;11493;43.344;26.226;2023-01-29T08:13:00;99776.97;;;2.73;100.00
22653;BME280;11493;43.344;26.226;2023-01-29T08:15:28;99780.13;;;2.64;100.00
22653;BME280;11493;43.344;26.226;2023-01-29T08:17:55;99788.78;;;2.61;100.00
22653;BME280;11493;43.344;26.226;2023-01-29T08:20:24;99792.50;;;2.55;100.00
22653;BME280;11493;43.344;26.226;2023-01-29T08:22:58;99747.59;;;2.48;100.00
22653;BME280;11493;43.344;26.226;2023-01-29T08:25:26;99791.28;;;2.85;100.00
22653;BME280;11493;43.344;26.226;2023-01-29T08:27:55;99792.03;;;2.80;100.00
22653;BME280;11493;43.344;26.226;2023-01-29T08:30:28;99780.06;;;2.59;100.00
22653;BME280;11493;43.344;26.226;2023-01-29T08:32:55;99787.72;;;2.62;100.00
22653;BME280;11493;43.344;26.226;2023-01-29T08:35:23;99793.03;;;2.74;100.00
22653;BME280;11493;43.344;26.226;2023-01-29T08:38:08;99797.28;;;2.87;100.00
22653;BME280;11493;43.344;26.226;2023-01-29T08:40:36;99783.50;;;2.93;100.00
22653;BME280;11493;43.344;26.226;2023-01-29T08:43:04;99789.25;;;2.97;100.00
22653;BME280;11493;43.344;26.226;2023-01-29T08:45:37;99799.38;;;3.07;100.00
22653;BME280;11493;43.344;26.226;2023-01-29T08:48:04;99800.84;;;3.14;100.00
22653;BME280;11493;43.344;26.226;2023-01-29T08:50:31;99800.00;;;3.14;100.00
22653;BME280;11493;43.344;26.226;2023-01-29T08:53:02;99813.28;;;3.32;99.64
22653;BME280;11493;43.344;26.226;2023-01-29T08:55:29;99808.78;;;3.43;99.87
22653;BME280;11493;43.344;26.226;2023-01-29T08:57:56;99807.75;;;3.49;98.87
22653;BME280;11493;43.344;26.226;2023-01-29T09:00:23;99811.84;;;3.51;98.41
22653;BME280;11493;43.344;26.226;2023-01-29T09:02:50;99798.91;;;3.37;98.63
22653;BME280;11493;43.344;26.226;2023-01-29T09:05:17;99795.78;;;3.82;100.00
22653;BME280;11493;43.344;26.226;2023-01-29T09:07:45;99788.34;;;3.67;100.00
22653;BME280;11493;43.344;26.226;2023-01-29T09:10:11;99788.13;;;3.47;100.00
22653;BME280;11493;43.344;26.226;2023-01-29T09:12:39;99789.41;;;3.39;100.00
22653;BME280;11493;43.344;26.226;2023-01-29T09:15:06;99797.16;;;3.25;100.00
22653;BME280;11493;43.344;26.226;2023-01-29T09:17:33;99790.69;;;3.32;100.00
22653;BME280;11493;43.344;26.226;2023-01-29T09:20:00;99796.97;;;3.32;100.00
22653;BME280;11493;43.344;26.226;2023-01-29T09:22:27;99803.63;;;3.19;100.00
22653;BME280;11493;43.344;26.226;2023-01-29T09:24:54;99808.16;;;3.14;100.00
22653;BME280;11493;43.344;26.226;2023-01-29T09:27:21;99784.25;;;3.16;100.00
22653;BME280;11493;43.344;26.226;2023-01-29T09:29:49;99788.03;;;3.37;100.00
22653;BME280;11493;43.344;26.226;2023-01-29T09:32:15;99781.25;;;3.39;99.65
22653;BME280;11493;43.344;26.226;2023-01-29T09:35:03;99783.16;;;3.39;100.00
22653;BME280;11493;43.344;26.226;2023-01-29T09:37:30;99767.59;;;3.34;98.87
22653;BME280;11493;43.344;26.226;2023-01-29T09:39:57;99781.47;;;3.33;99.40
22653;BME280;11493;43.344;26.226;2023-01-29T09:42:27;99781.97;;;3.29;100.00
22653;BME280;11493;43.344;26.226;2023-01-29T09:45:12;99785.72;;;3.23;100.00
22653;BME280;11493;43.344;26.226;2023-01-29T09:47:42;99783.06;;;3.28;99.75
22653;BME280;11493;43.344;26.226;2023-01-29T09:50:28;99797.09;;;3.20;100.00
22653;BME280;11493;43.344;26.226;2023-01-29T09:53:17;99796.03;;;3.21;100.00
22653;BME280;11493;43.344;26.226;2023-01-29T09:55:50;99792.63;;;3.09;100.00
22653;BME280;11493;43.344;26.226;2023-01-29T09:58:37;99793.31;;;3.21;100.00
22653;BME280;11493;43.344;26.226;2023-01-29T10:15:41;99769.91;;;3.20;100.00
22653;BME280;11493;43.344;26.226;2023-01-29T10:20:54;99763.56;;;3.37;100.00
22653;BME280;11493;43.344;26.226;2023-01-29T10:23:52;99752.41;;;3.38;99.06
22653;BME280;11493;43.344;26.226;2023-01-29T10:26:25;99756.31;;;3.47;99.99
22653;BME280;11493;43.344;26.226;2023-01-29T10:28:55;99759.34;;;3.51;100.00
22653;BME280;11493;43.344;26.226;2023-01-29T10:31:29;99751.84;;;3.63;100.00
22653;BME280;11493;43.344;26.226;2023-01-29T10:36:55;99757.72;;;3.87;97.43
22653;BME280;11493;43.344;26.226;2023-01-29T10:39:24;99760.59;;;3.70;98.22
22653;BME280;11493;43.344;26.226;2023-01-29T10:42:08;99751.88;;;3.68;96.85
22653;BME280;11493;43.344;26.226;2023-01-29T10:58:25;99730.03;;;3.58;99.90
22653;BME280;11493;43.344;26.226;2023-01-29T11:00:57;99737.09;;;3.59;98.96
22653;BME280;11493;43.344;26.226;2023-01-29T11:03:27;99730.75;;;3.48;99.94
22653;BME280;11493;43.344;26.226;2023-01-29T11:06:20;99742.53;;;3.59;100.00
22653;BME280;11493;43.344;26.226;2023-01-29T11:11:59;99730.03;;;3.58;99.74
22653;BME280;11493;43.344;26.226;2023-01-29T11:17:20;99726.69;;;3.51;99.65
22653;BME280;11493;43.344;26.226;2023-01-29T11:19:50;99723.06;;;3.40;99.99
22653;BME280;11493;43.344;26.226;2023-01-29T11:22:22;99706.13;;;3.33;100.00
22653;BME280;11493;43.344;26.226;2023-01-29T11:25:28;99720.59;;;3.39;100.00
22653;BME280;11493;43.344;26.226;2023-01-29T11:28:00;99718.56;;;3.24;100.00
22653;BME280;11493;43.344;26.226;2023-01-29T11:30:33;99724.50;;;3.21;100.00
22653;BME280;11493;43.344;26.226;2023-01-29T11:35:31;99722.03;;;3.46;100.00
22653;BME280;11493;43.344;26.226;2023-01-29T11:38:26;99717.09;;;3.43;100.00
22653;BME280;11493;43.344;26.226;2023-01-29T11:41:14;99710.44;;;3.29;100.00
22653;BME280;11493;43.344;26.226;2023-01-29T11:43:47;99699.41;;;3.14;100.00
22653;BME280;11493;43.344;26.226;2023-01-29T11:46:14;99693.41;;;3.12;100.00
22653;BME280;11493;43.344;26.226;2023-01-29T11:48:43;99692.75;;;3.26;100.00
22653;BME280;11493;43.344;26.226;2023-01-29T11:51:22;99692.19;;;3.24;100.00
22653;BME280;11493;43.344;26.226;2023-01-29T11:53:54;99692.44;;;3.23;100.00
22653;BME280;11493;43.344;26.226;2023-01-29T11:56:38;99692.03;;;3.09;100.00
22653;BME280;11493;43.344;26.226;2023-01-29T12:04:40;99685.03;;;3.18;100.00
22653;BME280;11493;43.344;26.226;2023-01-29T12:07:14;99686.13;;;3.17;100.00
22653;BME280;11493;43.344;26.226;2023-01-29T12:09:48;99681.75;;;3.16;100.00
22653;BME280;11493;43.344;26.226;2023-01-29T12:12:27;99697.00;;;3.17;100.00
22653;BME280;11493;43.344;26.226;2023-01-29T12:15:15;99693.50;;;3.22;100.00
22653;BME280;11493;43.344;26.226;2023-01-29T12:17:51;99666.63;;;2.98;100.00
22653;BME280;11493;43.344;26.226;2023-01-29T12:20:25;99700.34;;;3.24;100.00
22653;BME280;11493;43.344;26.226;2023-01-29T12:26:08;99688.06;;;3.22;100.00
22653;BME280;11493;43.344;26.226;2023-01-29T12:28:43;99702.53;;;3.27;100.00
22653;BME280;11493;43.344;26.226;2023-01-29T12:34:07;99697.63;;;3.24;100.00
22653;BME280;11493;43.344;26.226;2023-01-29T12:36:54;99691.88;;;3.21;100.00
22653;BME280;11493;43.344;26.226;2023-01-29T12:39:22;99694.34;;;3.22;100.00
22653;BME280;11493;43.344;26.226;2023-01-29T12:44:34;99700.38;;;3.29;100.00
22653;BME280;11493;43.344;26.226;2023-01-29T12:47:18;99712.84;;;3.25;100.00
22653;BME280;11493;43.344;26.226;2023-01-29T12:49:50;99719.38;;;3.24;100.00
22653;BME280;11493;43.344;26.226;2023-01-29T12:55:24;99716.13;;;3.27;100.00
22653;BME280;11493;43.344;26.226;2023-01-29T13:00:56;99714.94;;;3.45;100.00
22653;BME280;11493;43.344;26.226;2023-01-29T13:03:31;99711.34;;;3.40;100.00
22653;BME280;11493;43.344;26.226;2023-01-29T13:06:02;99707.97;;;3.27;100.00
22653;BME280;11493;43.344;26.226;2023-01-29T13:08:44;99727.53;;;3.24;100.00
22653;BME280;11493;43.344;26.226;2023-01-29T13:11:25;99727.06;;;3.33;100.00
22653;BME280;11493;43.344;26.226;2023-01-29T13:13:58;99722.25;;;3.40;100.00
22653;BME280;11493;43.344;26.226;2023-01-29T13:16:27;99729.75;;;3.27;100.00
22653;BME280;11493;43.344;26.226;2023-01-29T13:19:44;99713.25;;;3.12;100.00
22653;BME280;11493;43.344;26.226;2023-01-29T13:21:45;99720.81;;;3.32;100.00
22653;BME280;11493;43.344;26.226;2023-01-29T13:24:16;99722.56;;;3.16;100.00
22653;BME280;11493;43.344;26.226;2023-01-29T13:26:45;99729.78;;;3.06;100.00
22653;BME280;11493;43.344;26.226;2023-01-29T13:31:48;99714.75;;;2.98;100.00
22653;BME280;11493;43.344;26.226;2023-01-29T13:34:25;99725.09;;;2.96;100.00
22653;BME280;11493;43.344;26.226;2023-01-29T13:36:56;99715.16;;;2.85;100.00
22653;BME280;11493;43.344;26.226;2023-01-29T13:39:28;99723.25;;;2.80;100.00
22653;BME280;11493;43.344;26.226;2023-01-29T13:41:57;99706.34;;;2.73;100.00
22653;BME280;11493;43.344;26.226;2023-01-29T13:44:27;99706.84;;;2.70;100.00
22653;BME280;11493;43.344;26.226;2023-01-29T13:47:01;99721.00;;;2.72;100.00
22653;BME280;11493;43.344;26.226;2023-01-29T13:49:36;99730.22;;;2.71;100.00
22653;BME280;11493;43.344;26.226;2023-01-29T13:52:56;99728.00;;;2.68;100.00
22653;BME280;11493;43.344;26.226;2023-01-29T13:55:06;99725.59;;;2.71;100.00
22653;BME280;11493;43.344;26.226;2023-01-29T14:07:56;99731.75;;;2.61;100.00
22653;BME280;11493;43.344;26.226;2023-01-29T14:10:29;99728.00;;;2.68;100.00
22653;BME280;11493;43.344;26.226;2023-01-29T14:13:46;99734.84;;;2.70;100.00
22653;BME280;11493;43.344;26.226;2023-01-29T14:18:27;99729.78;;;2.57;100.00
22653;BME280;11493;43.344;26.226;2023-01-29T14:21:04;99732.25;;;2.58;100.00
22653;BME280;11493;43.344;26.226;2023-01-29T14:23:33;99732.50;;;2.57;100.00
22653;BME280;11493;43.344;26.226;2023-01-29T14:26:04;99720.25;;;2.54;100.00
22653;BME280;11493;43.344;26.226;2023-01-29T14:28:52;99724.41;;;2.62;100.00
22653;BME280;11493;43.344;26.226;2023-01-29T14:34:20;99706.53;;;2.44;100.00
22653;BME280;11493;43.344;26.226;2023-01-29T14:36:50;99728.44;;;2.59;100.00
22653;BME280;11493;43.344;26.226;2023-01-29T14:39:22;99734.97;;;2.58;100.00
22653;BME280;11493;43.344;26.226;2023-01-29T14:41:51;99730.16;;;2.66;100.00
22653;BME280;11493;43.344;26.226;2023-01-29T14:55:59;99736.66;;;2.64;100.00
22653;BME280;11493;43.344;26.226;2023-01-29T15:01:00;99726.56;;;2.60;100.00
22653;BME280;11493;43.344;26.226;2023-01-29T15:09:12;99732.50;;;2.79;100.00
22653;BME280;11493;43.344;26.226;2023-01-29T15:11:52;99748.28;;;2.82;100.00
22653;BME280;11493;43.344;26.226;2023-01-29T15:14:31;99745.50;;;2.77;100.00
22653;BME280;11493;43.344;26.226;2023-01-29T15:19:37;99743.75;;;2.66;100.00
22653;BME280;11493;43.344;26.226;2023-01-29T15:22:11;99735.41;;;2.72;100.00
22653;BME280;11493;43.344;26.226;2023-01-29T15:24:40;99735.84;;;2.64;100.00
22653;BME280;11493;43.344;26.226;2023-01-29T15:27:18;99730.09;;;2.60;100.00
22653;BME280;11493;43.344;26.226;2023-01-29T15:29:51;99741.84;;;2.66;100.00
22653;BME280;11493;43.344;26.226;2023-01-29T15:32:26;99732.81;;;2.60;100.00
22653;BME280;11493;43.344;26.226;2023-01-29T15:34:57;99730.72;;;2.68;100.00
22653;BME280;11493;43.344;26.226;2023-01-29T15:37:30;99742.78;;;2.77;100.00
22653;BME280;11493;43.344;26.226;2023-01-29T15:39:59;99745.19;;;2.73;100.00
22653;BME280;11493;43.344;26.226;2023-01-29T15:42:27;99735.09;;;2.69;100.00
22653;BME280;11493;43.344;26.226;2023-01-29T15:44:54;99727.06;;;2.57;100.00
22653;BME280;11493;43.344;26.226;2023-01-29T15:47:29;99750.69;;;2.78;100.00
22653;BME280;11493;43.344;26.226;2023-01-29T15:49:57;99748.53;;;2.80;100.00
22653;BME280;11493;43.344;26.226;2023-01-29T15:52:28;99742.72;;;2.72;100.00
22653;BME280;11493;43.344;26.226;2023-01-29T15:55:02;99761.31;;;2.80;100.00
22653;BME280;11493;43.344;26.226;2023-01-29T15:57:36;99752.59;;;2.78;100.00
22653;BME280;11493;43.344;26.226;2023-01-29T16:00:20;99736.59;;;2.59;100.00